TimeCST,TemperatureF,Dew PointF,Humidity,Sea Level PressureIn,VisibilityMPH,Wind Direction,Wind SpeedMPH,Gust SpeedMPH,PrecipitationIn,Events,Conditions,WindDirDegrees,DateUTC
12:15 AM,28.2,22.8,80,30.11,10.0,NNW,11.5,-,N/A,,Overcast,340,2013-03-06 06:15:00
12:35 AM,28.4,22.6,79,30.12,10.0,NNW,12.7,-,N/A,,Overcast,340,2013-03-06 06:35:00
12:55 AM,28.2,22.6,80,30.12,10.0,NNW,12.7,-,N/A,,Overcast,340,2013-03-06 06:55:00
1:15 AM,28.2,22.6,80,30.13,10.0,NNW,11.5,-,N/A,,Overcast,340,2013-03-06 07:15:00
1:35 AM,28.0,22.5,80,30.13,10.0,North,11.5,-,N/A,,Overcast,350,2013-03-06 07:35:00
1:55 AM,27.9,22.1,79,30.13,10.0,North,13.8,-,N/A,,Overcast,350,2013-03-06 07:55:00
2:15 AM,27.9,22.1,79,30.14,10.0,North,15.0,-,N/A,,Overcast,350,2013-03-06 08:15:00
2:35 AM,27.5,21.7,79,30.15,10.0,North,12.7,-,N/A,,Overcast,350,2013-03-06 08:35:00
2:55 AM,27.1,21.6,80,30.15,10.0,North,11.5,-,N/A,,Overcast,350,2013-03-06 08:55:00
3:15 AM,26.2,20.8,80,30.16,10.0,NNW,11.5,-,N/A,,Overcast,330,2013-03-06 09:15:00
3:35 AM,26.6,21.2,80,30.17,10.0,NNW,11.5,-,N/A,,Overcast,330,2013-03-06 09:35:00
3:55 AM,25.7,20.5,81,30.17,10.0,NNW,11.5,-,N/A,,Overcast,330,2013-03-06 09:55:00
4:15 AM,26.6,21.2,80,30.17,10.0,NNW,10.4,-,N/A,,Overcast,340,2013-03-06 10:15:00
4:35 AM,26.6,21.2,80,30.18,10.0,NNW,10.4,-,N/A,,Overcast,330,2013-03-06 10:35:00
4:55 AM,26.4,21.2,81,30.19,10.0,NNW,10.4,-,N/A,,Overcast,330,2013-03-06 10:55:00
5:15 AM,26.6,21.2,80,30.20,10.0,NW,11.5,-,N/A,,Overcast,320,2013-03-06 11:15:00
5:35 AM,26.6,21.2,80,30.20,10.0,NW,12.7,-,N/A,,Overcast,320,2013-03-06 11:35:00
6:15 AM,26.8,21.4,80,30.22,10.0,NNW,12.7,-,N/A,,Overcast,330,2013-03-06 12:15:00
6:35 AM,27.0,21.2,79,30.23,10.0,NW,11.5,-,N/A,,Overcast,320,2013-03-06 12:35:00
6:55 AM,27.1,21.6,80,30.23,10.0,NW,11.5,-,N/A,,Overcast,320,2013-03-06 12:55:00
7:15 AM,27.3,21.7,80,30.23,10.0,NNW,11.5,-,N/A,,Overcast,330,2013-03-06 13:15:00
7:35 AM,27.3,21.7,80,30.24,10.0,NNW,12.7,-,N/A,,Overcast,330,2013-03-06 13:35:00
7:55 AM,27.5,21.6,78,30.25,10.0,NW,13.8,18.4,N/A,,Overcast,320,2013-03-06 13:55:00
8:15 AM,27.9,21.9,78,30.25,10.0,NW,11.5,-,N/A,,Overcast,320,2013-03-06 14:15:00
8:35 AM,28.4,21.9,77,30.25,10.0,NW,10.4,-,N/A,,Overcast,320,2013-03-06 14:35:00
8:55 AM,28.2,21.6,76,30.27,10.0,NNW,15.0,-,N/A,,Overcast,330,2013-03-06 14:55:00
9:15 AM,28.4,21.7,76,30.27,10.0,NNW,10.4,-,N/A,,Overcast,340,2013-03-06 15:15:00
9:35 AM,29.1,21.9,74,30.27,10.0,NNW,10.4,-,N/A,,Overcast,330,2013-03-06 15:35:00
9:55 AM,29.3,22.1,75,30.27,10.0,NW,11.5,-,N/A,,Overcast,320,2013-03-06 15:55:00
10:15 AM,29.8,22.3,73,30.27,10.0,NW,11.5,-,N/A,,Overcast,320,2013-03-06 16:15:00
10:35 AM,30.2,22.6,73,30.27,10.0,NNW,11.5,-,N/A,,Overcast,330,2013-03-06 16:35:00
10:55 AM,30.7,23.0,73,30.27,10.0,NW,11.5,-,N/A,,Overcast,320,2013-03-06 16:55:00
11:15 AM,30.9,23.0,72,30.28,10.0,NW,10.4,-,N/A,,Overcast,320,2013-03-06 17:15:00
11:35 AM,31.1,23.4,73,30.28,10.0,NW,11.5,-,N/A,,Overcast,320,2013-03-06 17:35:00
11:55 AM,31.5,23.7,73,30.28,10.0,NNW,10.4,16.1,N/A,,Overcast,330,2013-03-06 17:55:00
12:15 PM,32.0,23.5,71,30.27,10.0,NW,11.5,-,N/A,,Overcast,320,2013-03-06 18:15:00
12:35 PM,32.0,23.5,71,30.27,10.0,NW,9.2,-,N/A,,Overcast,320,2013-03-06 18:35:00
12:55 PM,32.4,23.2,69,30.27,10.0,NW,11.5,-,N/A,,Overcast,320,2013-03-06 18:55:00
1:15 PM,32.7,23.4,68,30.26,10.0,NW,11.5,-,N/A,,Overcast,320,2013-03-06 19:15:00
1:35 PM,32.9,23.7,69,30.26,10.0,NW,9.2,-,N/A,,Overcast,320,2013-03-06 19:35:00
1:55 PM,33.1,23.4,67,30.26,10.0,NW,8.1,-,N/A,,Overcast,320,2013-03-06 19:55:00
2:15 PM,33.3,23.4,67,30.25,10.0,NW,8.1,-,N/A,,Overcast,310,2013-03-06 20:15:00
2:35 PM,33.4,23.7,68,30.26,10.0,NW,6.9,-,N/A,,Overcast,320,2013-03-06 20:35:00
2:55 PM,33.4,23.5,67,30.26,10.0,NW,10.4,-,N/A,,Overcast,320,2013-03-06 20:55:00
3:15 PM,33.3,23.2,67,30.27,10.0,NW,9.2,-,N/A,,Overcast,320,2013-03-06 21:15:00
3:35 PM,33.1,23.2,67,30.27,10.0,NNW,10.4,-,N/A,,Overcast,330,2013-03-06 21:35:00
3:55 PM,32.9,23.4,68,30.27,10.0,NW,6.9,-,N/A,,Overcast,320,2013-03-06 21:55:00
4:15 PM,32.5,23.0,68,30.27,10.0,NW,9.2,-,N/A,,Overcast,320,2013-03-06 22:15:00
4:35 PM,32.4,22.5,67,30.27,10.0,NW,8.1,-,N/A,,Overcast,310,2013-03-06 22:35:00
4:55 PM,32.0,22.8,69,30.27,10.0,NW,8.1,-,N/A,,Overcast,320,2013-03-06 22:55:00
5:15 PM,31.8,22.5,68,30.27,10.0,NW,8.1,-,N/A,,Overcast,320,2013-03-06 23:15:00
5:35 PM,31.6,22.1,68,30.28,10.0,WNW,8.1,-,N/A,,Overcast,300,2013-03-06 23:35:00
5:55 PM,31.5,21.9,68,30.28,10.0,WNW,6.9,-,N/A,,Overcast,300,2013-03-06 23:55:00
6:15 PM,31.1,21.7,68,30.28,10.0,WNW,5.8,-,N/A,,Overcast,300,2013-03-07 00:15:00
6:35 PM,30.9,21.6,68,30.29,10.0,WNW,6.9,-,N/A,,Overcast,290,2013-03-07 00:35:00
6:55 PM,30.7,21.9,70,30.29,10.0,WNW,8.1,-,N/A,,Overcast,290,2013-03-07 00:55:00
7:15 PM,30.2,21.9,71,30.29,10.0,WNW,6.9,-,N/A,,Overcast,290,2013-03-07 01:15:00
7:35 PM,30.2,21.6,70,30.29,10.0,WNW,5.8,-,N/A,,Overcast,300,2013-03-07 01:35:00
7:55 PM,30.2,21.6,70,30.29,10.0,WNW,6.9,-,N/A,,Overcast,300,2013-03-07 01:55:00
8:35 PM,29.8,21.7,72,30.30,10.0,NW,6.9,-,N/A,,Overcast,310,2013-03-07 02:35:00
8:55 PM,29.7,21.6,72,30.30,10.0,NW,5.8,-,N/A,,Overcast,320,2013-03-07 02:55:00
9:15 PM,29.8,21.4,71,30.30,10.0,NW,5.8,-,N/A,,Overcast,320,2013-03-07 03:15:00
9:35 PM,29.5,21.2,71,30.31,10.0,NW,6.9,-,N/A,,Overcast,320,2013-03-07 03:35:00
9:55 PM,29.7,21.0,70,30.31,10.0,WNW,8.1,-,N/A,,Overcast,300,2013-03-07 03:55:00
10:15 PM,29.3,20.7,70,30.31,10.0,WNW,5.8,-,N/A,,Overcast,300,2013-03-07 04:15:00
10:35 PM,28.8,21.0,73,30.31,10.0,NW,3.5,-,N/A,,Overcast,310,2013-03-07 04:35:00
10:55 PM,28.0,20.7,74,30.31,10.0,NNW,3.5,-,N/A,,Overcast,340,2013-03-07 04:55:00
11:15 PM,28.2,19.4,70,30.30,10.0,NNW,4.6,-,N/A,,Overcast,330,2013-03-07 05:15:00
11:35 PM,25.3,17.6,72,30.31,10.0,North,3.5,-,N/A,,Overcast,360,2013-03-07 05:35:00
11:55 PM,22.1,16.5,79,30.31,10.0,NNW,3.5,-,N/A,,Mostly Cloudy,340,2013-03-07 05:55:00